Aviation Digital Data Service (ADDS)

Output produced by METARs form (0242 UTC 24 July 2017)
found at http://www.aviationweather.gov/adds/metars/
 
GLRB 240000Z 00000KT 9999 BKN011 25/24 Q1016 NOSIG
TAF GLRB 231000Z 2312/2418 21010KT 7000 RA SCT003 OVC015 FEW025CB 
     TEMPO 2313/2317 18015KT 4000 RA BKN002 OVC011 FEW023CB 
     BECMG 2318/2320 20010KT 8000 BKN012 FEW024CB